首页
METAR-TAF:

METAR-TAF

机场 :

鲁昂, 法国

纬度: 49-23N, 经度: 001-11E, 海拔: 157米

当前天气观测

该预报发布于38分钟前的23:30 UTC
风速7节,风向北转东北
温度 15°C
湿度 63%
气压 1034 hPa
能见度10公里或以上
1500米以下无云,无积雨云

METAR: LFOP 262330Z AUTO 03007KT CAVOK 15/08 Q1034

时间: 02:08 (00:08 UTC)

预报

该预报发布于7小时和8分钟前的17:00 UTC
预报有效从26日的 18点(UTC)到 27日的 18点(UTC)
风速9节,风向北转东北
能见度10公里或以上
1500米以下无云,无积雨云

TAF: LFOP 261700Z 2618/2718 03009KT CAVOK

超过4000个机场的气象观测和天气预报(METAR&TAF报告)。

可查询的气象台以黄色和红色小点在地图上表示。

将鼠标移到小点上方,可查看气象台名称。

然后点击查看天气观测和预报。

如需切换地图:点击带黑十字的绿色按钮放大地图;点击带横线的绿色按钮缩小地图;或者点击绿色箭头查看邻近地区的地图。


METAR-TAF: